Time;durP1;ratioP1;P1;durP2;ratioP2;P2;SDS_P1;SDS_P2;PMS_P1;PMS_P2;Temp;Humidity;BMP_temperature;BMP_pressure;BME280_temperature;BME280_humidity;BME280_pressure;Samples;Min_cycle;Max_cycle;Signal;HPM_P1;HPM_P2
2021/10/14 00:01:57;;;;;;;20.05;11.45;;;11.60;99.90;;;;;;5056642;28;20032;-50
2021/10/14 00:04:23;;;;;;;18.13;12.10;;;11.60;99.90;;;;;;5055734;28;20037;-50
2021/10/14 00:06:48;;;;;;;19.02;11.77;;;11.70;99.90;;;;;;5055799;28;20110;-49
2021/10/14 00:09:14;;;;;;;19.48;12.30;;;11.70;99.90;;;;;;5051374;28;20029;-50
2021/10/14 00:11:41;;;;;;;17.73;11.55;;;11.70;99.90;;;;;;5046640;28;20068;-50
2021/10/14 00:14:07;;;;;;;22.70;12.68;;;11.70;99.90;;;;;;5048922;28;20033;-50
2021/10/14 00:16:32;;;;;;;22.77;12.18;;;11.70;99.90;;;;;;5047755;28;20067;-50
2021/10/14 00:19:02;;;;;;;18.73;11.90;;;11.80;99.90;;;;;;5060888;28;20106;-51
2021/10/14 00:21:28;;;;;;;22.85;12.38;;;11.80;99.90;;;;;;5049506;28;20061;-50
2021/10/14 00:23:53;;;;;;;20.15;12.60;;;11.80;99.90;;;;;;5050598;28;20091;-51
2021/10/14 00:26:20;;;;;;;22.17;13.77;;;11.80;99.90;;;;;;5051965;28;20044;-50
2021/10/14 00:28:45;;;;;;;21.00;13.82;;;11.80;99.90;;;;;;5052722;28;20037;-51
2021/10/14 00:31:11;;;;;;;25.17;15.05;;;11.80;99.90;;;;;;5051672;28;20025;-50
2021/10/14 00:33:37;;;;;;;23.50;14.90;;;11.80;99.90;;;;;;5042743;28;20033;-50
2021/10/14 00:36:02;;;;;;;29.45;15.88;;;11.80;99.90;;;;;;5053416;28;20037;-50
2021/10/14 00:38:28;;;;;;;24.60;15.02;;;11.80;99.90;;;;;;5047263;28;20060;-50
2021/10/14 00:40:54;;;;;;;28.83;15.63;;;11.80;99.90;;;;;;5035765;28;20087;-50
2021/10/14 00:43:20;;;;;;;29.55;16.30;;;11.80;99.90;;;;;;5058113;28;20033;-51
2021/10/14 00:45:45;;;;;;;33.97;16.92;;;11.80;99.90;;;;;;5049979;28;20560;-50
2021/10/14 00:48:11;;;;;;;35.20;17.70;;;11.80;99.90;;;;;;5056884;28;20170;-50
2021/10/14 00:50:37;;;;;;;30.40;16.90;;;11.90;99.90;;;;;;5040312;28;20401;-51
2021/10/14 00:53:05;;;;;;;35.35;16.73;;;11.90;99.90;;;;;;5033706;28;20045;-50
2021/10/14 00:55:30;;;;;;;33.55;17.83;;;11.90;99.90;;;;;;5048001;28;20033;-53
2021/10/14 00:57:56;;;;;;;39.00;18.27;;;11.90;99.90;;;;;;5053221;28;20211;-50
2021/10/14 01:00:22;;;;;;;37.30;18.08;;;11.90;99.90;;;;;;5043696;28;20037;-50
2021/10/14 01:02:48;;;;;;;37.85;18.55;;;11.90;99.90;;;;;;5046569;28;20048;-51
2021/10/14 01:05:13;;;;;;;39.38;17.90;;;12.00;99.90;;;;;;5043307;28;20037;-49
2021/10/14 01:07:39;;;;;;;35.13;17.75;;;12.00;99.90;;;;;;5049774;28;20037;-51
2021/10/14 01:10:06;;;;;;;38.75;18.60;;;12.00;99.90;;;;;;5048711;28;20040;-52
2021/10/14 01:12:33;;;;;;;33.55;18.63;;;12.00;99.90;;;;;;5056282;28;20063;-49
2021/10/14 01:14:58;;;;;;;33.92;17.80;;;12.00;99.90;;;;;;5055330;28;20044;-50
2021/10/14 01:17:24;;;;;;;36.47;18.25;;;12.10;99.90;;;;;;5043779;28;20485;-50
2021/10/14 01:19:49;;;;;;;38.25;18.98;;;12.10;99.90;;;;;;5059712;28;20043;-50
2021/10/14 01:22:15;;;;;;;39.80;19.85;;;12.10;99.90;;;;;;5046035;28;20036;-51
2021/10/14 01:24:41;;;;;;;37.40;18.67;;;12.10;99.90;;;;;;5041354;28;20126;-50
2021/10/14 01:27:08;;;;;;;33.50;18.63;;;12.10;99.90;;;;;;5055357;28;20485;-51
2021/10/14 01:29:35;;;;;;;36.45;17.88;;;12.10;99.90;;;;;;5047448;28;20086;-51
2021/10/14 01:32:02;;;;;;;33.53;18.60;;;12.20;99.90;;;;;;5050348;28;20043;-54
2021/10/14 01:34:28;;;;;;;34.40;17.95;;;12.20;99.90;;;;;;5050099;28;20033;-52
2021/10/14 01:36:53;;;;;;;36.60;18.17;;;12.20;99.90;;;;;;5042244;28;20745;-50
2021/10/14 01:39:19;;;;;;;35.30;17.67;;;12.20;99.90;;;;;;5050834;28;20212;-49
2021/10/14 01:41:46;;;;;;;36.30;18.23;;;12.20;99.90;;;;;;5044842;28;20033;-52
2021/10/14 01:44:12;;;;;;;39.33;17.63;;;12.20;99.90;;;;;;5046750;28;20056;-49
2021/10/14 01:46:38;;;;;;;32.85;18.50;;;12.20;99.90;;;;;;5057813;28;20391;-52
2021/10/14 01:49:04;;;;;;;31.95;16.92;;;12.20;99.90;;;;;;5053806;28;20040;-51
2021/10/14 01:51:30;;;;;;;35.42;16.92;;;12.20;99.90;;;;;;5051082;28;20040;-51
2021/10/14 01:53:56;;;;;;;32.95;16.77;;;12.20;99.90;;;;;;5043777;28;20516;-51
2021/10/14 01:56:22;;;;;;;32.47;16.48;;;12.30;99.90;;;;;;5006647;28;20041;-51
2021/10/14 01:58:47;;;;;;;31.65;16.80;;;12.20;99.90;;;;;;5049416;28;20418;-50
2021/10/14 02:01:13;;;;;;;31.30;17.05;;;12.20;99.90;;;;;;5043714;28;20171;-51
2021/10/14 02:03:38;;;;;;;31.45;16.60;;;12.20;99.90;;;;;;5049603;28;20037;-52
2021/10/14 02:06:04;;;;;;;32.28;17.30;;;12.20;99.90;;;;;;5050353;28;20393;-50
2021/10/14 02:08:30;;;;;;;28.75;17.00;;;12.20;99.90;;;;;;5047513;28;20146;-51
2021/10/14 02:10:56;;;;;;;31.52;16.75;;;12.20;99.90;;;;;;5010616;28;20560;-51
2021/10/14 02:13:21;;;;;;;29.70;17.08;;;12.20;99.90;;;;;;5046414;28;20116;-50
2021/10/14 02:15:47;;;;;;;28.77;16.73;;;12.30;99.90;;;;;;5053794;28;20041;-50
2021/10/14 02:18:12;;;;;;;30.58;17.92;;;12.20;99.90;;;;;;5047527;28;20128;-52
2021/10/14 02:20:38;;;;;;;36.35;18.13;;;12.20;99.90;;;;;;5046289;28;20509;-53
2021/10/14 02:23:04;;;;;;;30.98;18.23;;;12.20;99.90;;;;;;5055066;28;20041;-53
2021/10/14 02:25:29;;;;;;;33.60;18.05;;;12.20;99.90;;;;;;5047626;28;20102;-54
2021/10/14 02:27:55;;;;;;;33.53;18.98;;;12.20;99.90;;;;;;5061341;28;20033;-54
2021/10/14 02:30:21;;;;;;;33.63;19.33;;;12.20;99.90;;;;;;5052619;28;20033;-53
2021/10/14 02:32:46;;;;;;;36.42;20.00;;;12.20;99.90;;;;;;5056437;28;20603;-54
2021/10/14 02:35:12;;;;;;;33.90;19.73;;;12.20;99.90;;;;;;5042791;28;20109;-52
2021/10/14 02:37:39;;;;;;;36.40;20.52;;;12.20;99.90;;;;;;5051963;28;20044;-50
2021/10/14 02:40:06;;;;;;;39.50;23.17;;;12.20;99.90;;;;;;5054710;28;20521;-54
2021/10/14 02:42:32;;;;;;;38.17;21.55;;;12.20;99.90;;;;;;5052802;28;20048;-52
2021/10/14 02:44:57;;;;;;;42.40;22.17;;;12.20;99.90;;;;;;5049378;28;20036;-54
2021/10/14 02:47:23;;;;;;;44.13;23.60;;;12.20;99.90;;;;;;5051954;28;20562;-54
2021/10/14 02:49:49;;;;;;;50.55;24.20;;;12.20;99.90;;;;;;5056911;28;20033;-54
2021/10/14 02:52:14;;;;;;;50.45;25.35;;;12.20;99.90;;;;;;5047492;28;20041;-51
2021/10/14 02:54:40;;;;;;;47.25;24.85;;;12.10;99.90;;;;;;5054666;28;20043;-50
2021/10/14 02:57:05;;;;;;;46.15;25.35;;;12.20;99.90;;;;;;5049291;28;20032;-49
2021/10/14 02:59:31;;;;;;;48.80;24.95;;;12.20;99.90;;;;;;5046002;28;20451;-51
2021/10/14 03:01:56;;;;;;;46.67;24.70;;;12.10;99.90;;;;;;5044723;28;20070;-51
2021/10/14 03:04:22;;;;;;;45.35;24.67;;;12.10;99.90;;;;;;5059384;28;20033;-50
2021/10/14 03:06:48;;;;;;;44.70;24.45;;;12.10;99.90;;;;;;5052063;28;20029;-52
2021/10/14 03:09:14;;;;;;;48.15;24.05;;;12.10;99.90;;;;;;5059252;28;20036;-51
2021/10/14 03:11:39;;;;;;;44.75;24.92;;;12.10;99.90;;;;;;5064087;28;20051;-51
2021/10/14 03:14:05;;;;;;;52.22;26.85;;;12.10;99.90;;;;;;5054380;28;20037;-50
2021/10/14 03:16:31;;;;;;;49.60;26.65;;;12.20;99.90;;;;;;5056468;28;20047;-51
2021/10/14 03:18:57;;;;;;;54.03;26.90;;;12.20;99.90;;;;;;5023932;28;20648;-50
2021/10/14 03:21:23;;;;;;;54.47;27.50;;;12.20;99.90;;;;;;5026198;28;20067;-50
2021/10/14 03:23:52;;;;;;;58.22;27.75;;;12.20;99.90;;;;;;5056549;28;20037;-50
2021/10/14 03:26:18;;;;;;;55.83;27.30;;;12.20;99.90;;;;;;5051896;28;20041;-50
2021/10/14 03:28:44;;;;;;;52.47;27.50;;;12.20;99.90;;;;;;5056193;28;20425;-50
2021/10/14 03:31:10;;;;;;;54.90;26.98;;;12.20;99.90;;;;;;5054105;28;20036;-51
2021/10/14 03:33:35;;;;;;;48.00;25.80;;;12.20;99.90;;;;;;5054816;28;20442;-50
2021/10/14 03:36:02;;;;;;;61.15;28.83;;;12.20;99.90;;;;;;5053411;28;20064;-51
2021/10/14 03:38:28;;;;;;;58.22;28.10;;;12.30;99.90;;;;;;5039819;28;20439;-50
2021/10/14 03:40:54;;;;;;;52.83;26.48;;;12.30;99.90;;;;;;5043242;28;20099;-50
2021/10/14 03:43:19;;;;;;;62.00;27.67;;;12.30;99.90;;;;;;5052996;28;20572;-50
2021/10/14 03:45:45;;;;;;;57.13;28.05;;;12.30;99.90;;;;;;5060123;28;20041;-50
2021/10/14 03:48:10;;;;;;;47.08;27.38;;;12.30;99.90;;;;;;5049502;28;20168;-50
2021/10/14 03:54:17;;;;;;;49.65;27.13;;;12.30;99.90;;;;;;5044109;28;20044;-50
2021/10/14 03:56:43;;;;;;;47.25;28.00;;;12.30;99.90;;;;;;5048722;28;20037;-50
2021/10/14 03:59:08;;;;;;;51.72;28.23;;;12.30;99.90;;;;;;5052645;28;20386;-51
2021/10/14 04:01:34;;;;;;;53.45;27.20;;;12.40;99.90;;;;;;5043904;28;20037;-50
2021/10/14 04:03:59;;;;;;;53.42;29.13;;;12.40;99.90;;;;;;5045576;28;20082;-52
2021/10/14 04:06:25;;;;;;;51.30;27.40;;;12.40;99.90;;;;;;5047657;28;20034;-50
2021/10/14 04:08:51;;;;;;;58.40;28.90;;;12.40;99.90;;;;;;5050762;28;20029;-49
2021/10/14 04:11:16;;;;;;;54.55;28.60;;;12.40;99.90;;;;;;5057147;28;20112;-49
2021/10/14 04:13:42;;;;;;;49.70;27.60;;;12.40;99.90;;;;;;5049872;28;20032;-50
2021/10/14 04:21:19;;;;;;;46.75;26.40;;;12.40;99.90;;;;;;5677753;22;20057;-50
2021/10/14 04:23:45;;;;;;;43.53;25.08;;;12.40;99.90;;;;;;5050288;28;20074;-52
2021/10/14 04:26:11;;;;;;;46.33;26.02;;;12.40;99.90;;;;;;5017572;28;20037;-50
2021/10/14 04:28:37;;;;;;;43.33;25.15;;;12.50;99.90;;;;;;5033828;28;20048;-52
2021/10/14 04:31:03;;;;;;;46.88;25.90;;;12.50;99.90;;;;;;5032704;28;20049;-49
2021/10/14 04:33:29;;;;;;;49.33;25.67;;;12.50;99.90;;;;;;5031061;28;20048;-50
2021/10/14 04:35:56;;;;;;;44.85;25.67;;;12.50;99.90;;;;;;5031725;28;20026;-55
2021/10/14 04:38:22;;;;;;;53.15;27.85;;;12.50;99.90;;;;;;5014354;28;20048;-50
2021/10/14 04:40:47;;;;;;;52.92;26.75;;;12.50;99.90;;;;;;5031826;28;20493;-49
2021/10/14 04:43:14;;;;;;;50.78;26.38;;;12.50;99.90;;;;;;5032640;28;20035;-52
2021/10/14 04:45:39;;;;;;;50.35;27.38;;;12.60;99.90;;;;;;5028454;28;20465;-49
2021/10/14 04:48:05;;;;;;;54.42;27.35;;;12.60;99.90;;;;;;5031102;28;20038;-50
2021/10/14 04:50:30;;;;;;;50.00;26.45;;;12.60;99.90;;;;;;5030894;28;20085;-49
2021/10/14 04:52:56;;;;;;;49.53;25.10;;;12.50;99.90;;;;;;5029565;28;20452;-49
2021/10/14 04:55:21;;;;;;;45.05;23.77;;;12.60;99.90;;;;;;5031165;28;20037;-52
2021/10/14 04:57:47;;;;;;;42.85;23.85;;;12.60;99.90;;;;;;5029746;28;20045;-50
2021/10/14 05:00:13;;;;;;;41.50;23.38;;;12.60;99.90;;;;;;5030522;28;20452;-48
2021/10/14 05:02:40;;;;;;;41.25;22.45;;;12.60;99.90;;;;;;5026139;28;20046;-49
2021/10/14 05:05:05;;;;;;;40.53;21.83;;;12.60;99.90;;;;;;5028072;28;20048;-53
2021/10/14 05:07:31;;;;;;;34.15;20.77;;;12.60;99.90;;;;;;5036023;28;20045;-52
2021/10/14 05:09:57;;;;;;;33.70;19.50;;;12.70;99.90;;;;;;5014140;28;20044;-52
2021/10/14 05:12:23;;;;;;;33.05;20.15;;;12.70;99.90;;;;;;5021877;28;20037;-53
2021/10/14 05:14:48;;;;;;;27.52;17.73;;;12.60;99.90;;;;;;5029381;28;20048;-50
2021/10/14 05:17:14;;;;;;;30.98;18.77;;;12.70;99.90;;;;;;5027065;28;20129;-53
2021/10/14 05:19:40;;;;;;;31.83;18.92;;;12.70;99.90;;;;;;5033746;28;20491;-49
2021/10/14 05:22:05;;;;;;;31.58;18.58;;;12.70;99.90;;;;;;5031654;28;20041;-52
2021/10/14 05:24:31;;;;;;;31.88;19.40;;;12.70;99.90;;;;;;5031948;28;20116;-49
2021/10/14 05:26:57;;;;;;;32.83;19.60;;;12.70;99.90;;;;;;5030146;28;20121;-50
2021/10/14 05:29:23;;;;;;;35.95;20.35;;;12.70;99.90;;;;;;5030431;28;20044;-49
2021/10/14 05:31:48;;;;;;;35.22;20.35;;;12.70;99.90;;;;;;5030291;28;20033;-51
2021/10/14 05:34:15;;;;;;;32.53;20.13;;;12.70;99.90;;;;;;5029862;28;20477;-51
2021/10/14 05:36:40;;;;;;;33.90;20.40;;;12.70;99.90;;;;;;5012051;28;20045;-52
2021/10/14 05:39:06;;;;;;;39.05;20.45;;;12.70;99.90;;;;;;5030251;28;20552;-52
2021/10/14 05:41:31;;;;;;;36.67;21.45;;;12.70;99.90;;;;;;5032374;28;20640;-52
2021/10/14 05:44:37;;;;;;;37.53;20.52;;;12.70;99.90;;;;;;5045207;28;20037;-51
2021/10/14 05:47:02;;;;;;;39.80;19.42;;;12.70;99.90;;;;;;5001652;28;20409;-55
2021/10/14 05:49:28;;;;;;;34.92;19.00;;;12.70;99.90;;;;;;5029554;28;20025;-54
2021/10/14 05:51:54;;;;;;;39.00;19.88;;;12.70;99.90;;;;;;5026862;28;20124;-55
2021/10/14 05:54:19;;;;;;;37.42;20.08;;;12.80;99.90;;;;;;5029794;28;20041;-55
2021/10/14 05:56:45;;;;;;;37.83;20.52;;;12.70;99.90;;;;;;5030737;28;20393;-55
2021/10/14 05:59:10;;;;;;;39.35;19.98;;;12.80;99.90;;;;;;5030201;28;20037;-55
2021/10/14 06:01:36;;;;;;;38.00;20.08;;;12.70;99.90;;;;;;5028042;28;20045;-54
2021/10/14 06:04:01;;;;;;;34.22;18.77;;;12.70;99.90;;;;;;5030458;28;20025;-55
2021/10/14 06:06:27;;;;;;;38.47;20.00;;;12.80;99.90;;;;;;5030459;28;20133;-55
2021/10/14 06:08:53;;;;;;;35.40;19.38;;;12.80;99.90;;;;;;5031653;28;20049;-55
2021/10/14 06:11:18;;;;;;;35.42;18.60;;;12.70;99.90;;;;;;5029468;28;20112;-55
2021/10/14 06:13:44;;;;;;;39.40;19.30;;;12.70;99.90;;;;;;5028665;28;20429;-55
2021/10/14 06:16:10;;;;;;;38.65;18.80;;;12.80;99.90;;;;;;5030269;28;20103;-53
2021/10/14 06:18:37;;;;;;;39.90;20.65;;;12.70;99.90;;;;;;5029000;28;20055;-54
2021/10/14 06:21:03;;;;;;;38.55;19.63;;;12.80;99.90;;;;;;5030956;28;20041;-51
2021/10/14 06:23:29;;;;;;;37.00;18.40;;;12.80;99.90;;;;;;5025386;28;20521;-51
2021/10/14 06:25:55;;;;;;;42.50;19.27;;;12.80;99.90;;;;;;5012694;28;20069;-51
2021/10/14 06:28:22;;;;;;;37.10;19.30;;;12.70;99.90;;;;;;5028243;28;20052;-54
2021/10/14 06:30:47;;;;;;;40.63;19.88;;;12.80;99.90;;;;;;5030348;28;20096;-54
2021/10/14 06:33:13;;;;;;;33.72;18.33;;;12.80;99.90;;;;;;5031006;28;20533;-55
2021/10/14 06:35:39;;;;;;;43.45;21.13;;;12.80;99.90;;;;;;5034406;28;20043;-55
2021/10/14 06:38:06;;;;;;;41.90;20.13;;;12.80;99.90;;;;;;5029594;28;20029;-54
2021/10/14 06:40:32;;;;;;;32.60;18.77;;;12.80;99.90;;;;;;5033708;28;20501;-52
2021/10/14 06:42:57;;;;;;;35.25;18.67;;;12.80;99.90;;;;;;5032623;28;20060;-53
2021/10/14 06:45:23;;;;;;;38.45;18.48;;;12.90;99.90;;;;;;5035284;28;20034;-54
2021/10/14 06:47:48;;;;;;;36.88;19.02;;;12.90;99.90;;;;;;5027784;28;20413;-53
2021/10/14 06:50:14;;;;;;;39.83;18.77;;;12.90;99.90;;;;;;5024321;28;20033;-52
2021/10/14 06:52:40;;;;;;;33.13;17.52;;;12.80;99.90;;;;;;5032980;28;20411;-53
2021/10/14 06:55:06;;;;;;;30.52;16.73;;;12.90;99.90;;;;;;5029057;28;20042;-54
2021/10/14 06:57:32;;;;;;;34.75;17.27;;;12.90;99.90;;;;;;5032505;28;20436;-51
2021/10/14 06:59:57;;;;;;;35.97;17.65;;;12.90;99.90;;;;;;5029880;28;20559;-53
2021/10/14 07:02:24;;;;;;;38.15;17.17;;;12.90;99.90;;;;;;5029239;28;20038;-54
2021/10/14 07:04:50;;;;;;;29.73;16.33;;;12.90;99.90;;;;;;5030759;28;20176;-52
2021/10/14 07:07:15;;;;;;;31.52;17.05;;;12.90;99.90;;;;;;5035771;28;20128;-52
2021/10/14 07:09:41;;;;;;;30.45;15.73;;;13.00;99.90;;;;;;5028173;28;20489;-52
2021/10/14 07:12:10;;;;;;;33.05;16.27;;;13.00;99.90;;;;;;5032807;28;20417;-52
2021/10/14 07:14:42;;;;;;;29.35;16.83;;;13.00;99.90;;;;;;5034348;28;20375;-53
2021/10/14 07:17:08;;;;;;;;;;;13.00;99.90;;;;;;5031255;28;20037;-54
2021/10/14 07:19:35;;;;;;;30.13;16.42;;;13.00;99.90;;;;;;5043862;28;19924;-54
2021/10/14 07:22:01;;;;;;;33.75;17.25;;;13.00;99.90;;;;;;5034151;28;20103;-52
2021/10/14 07:24:28;;;;;;;33.08;15.60;;;13.00;99.90;;;;;;5034000;28;20091;-53
2021/10/14 07:26:54;;;;;;;27.50;15.93;;;13.00;99.90;;;;;;5033548;28;20041;-52
2021/10/14 07:29:19;;;;;;;32.30;17.02;;;13.00;99.90;;;;;;5033803;28;20037;-54
2021/10/14 07:31:45;;;;;;;30.25;17.17;;;13.00;99.90;;;;;;5032983;28;20030;-51
2021/10/14 07:34:11;;;;;;;31.23;16.38;;;13.00;99.90;;;;;;5032271;28;20044;-55
2021/10/14 07:36:37;;;;;;;36.13;16.02;;;13.00;99.90;;;;;;5033572;28;20075;-55
2021/10/14 07:39:02;;;;;;;29.38;15.88;;;13.00;99.90;;;;;;5033728;28;20030;-54
2021/10/14 07:41:29;;;;;;;29.55;16.08;;;13.00;99.90;;;;;;5033639;28;20037;-52
2021/10/14 07:43:55;;;;;;;30.00;16.27;;;13.00;99.90;;;;;;5033529;28;20029;-53
2021/10/14 07:46:20;;;;;;;29.25;16.38;;;13.00;99.90;;;;;;5033201;28;20040;-51
2021/10/14 07:48:46;;;;;;;33.20;16.38;;;13.00;99.90;;;;;;5033222;28;20469;-54
2021/10/14 07:51:12;;;;;;;26.25;16.13;;;13.10;99.90;;;;;;5033060;28;20041;-54
2021/10/14 07:53:39;;;;;;;34.97;16.70;;;13.00;99.90;;;;;;5032490;28;20038;-52
2021/10/14 07:56:05;;;;;;;34.35;17.05;;;13.00;99.90;;;;;;5033043;28;20095;-51
2021/10/14 07:58:31;;;;;;;28.85;16.40;;;13.10;99.90;;;;;;5032892;28;20037;-51
2021/10/14 08:00:57;;;;;;;35.05;16.30;;;13.00;99.90;;;;;;5015925;28;20052;-52
2021/10/14 08:03:23;;;;;;;34.13;16.05;;;13.10;99.90;;;;;;5031805;28;20042;-51
2021/10/14 08:05:49;;;;;;;30.23;15.75;;;13.10;99.90;;;;;;5033300;28;20594;-52
2021/10/14 08:08:15;;;;;;;30.70;16.10;;;13.10;99.90;;;;;;4999932;28;20095;-51
2021/10/14 08:10:40;;;;;;;33.50;16.83;;;13.20;99.90;;;;;;5031823;28;20054;-54
2021/10/14 08:13:13;;;;;;;27.88;15.82;;;13.20;99.90;;;;;;5034388;28;20044;-53
2021/10/14 08:15:40;;;;;;;32.70;16.08;;;13.20;99.90;;;;;;5028680;28;20045;-52
2021/10/14 08:18:05;;;;;;;27.77;14.57;;;13.20;99.90;;;;;;5032937;28;20040;-55
2021/10/14 08:20:33;;;;;;;27.55;14.10;;;13.30;99.90;;;;;;5032940;28;20041;-52
2021/10/14 08:23:00;;;;;;;26.10;14.43;;;13.30;99.90;;;;;;5024282;28;20037;-54
2021/10/14 08:25:25;;;;;;;30.73;15.88;;;13.30;99.90;;;;;;5032830;28;20095;-54
2021/10/14 08:27:51;;;;;;;22.10;13.88;;;13.30;99.90;;;;;;5032512;28;20038;-54
2021/10/14 08:30:17;;;;;;;25.08;12.52;;;13.30;99.90;;;;;;5033112;28;20034;-51
2021/10/14 08:32:42;;;;;;;23.42;12.73;;;13.40;99.90;;;;;;5039249;28;20033;-52
2021/10/14 08:35:12;;;;;;;21.02;11.13;;;13.40;99.90;;;;;;5032890;28;20625;-53
2021/10/14 08:37:39;;;;;;;16.40;9.70;;;13.40;99.90;;;;;;5038411;28;20460;-52
2021/10/14 08:40:05;;;;;;;15.88;9.13;;;13.50;99.90;;;;;;5031094;28;20033;-55
2021/10/14 08:42:31;;;;;;;17.73;9.65;;;13.50;99.90;;;;;;5032652;28;20322;-55
2021/10/14 08:45:02;;;;;;;16.60;9.20;;;13.50;99.90;;;;;;5032289;28;20379;-54
2021/10/14 08:47:28;;;;;;;11.30;7.35;;;13.60;99.90;;;;;;5035401;28;20517;-52
2021/10/14 08:49:57;;;;;;;15.50;8.32;;;13.60;99.90;;;;;;5038371;28;20517;-53
2021/10/14 08:52:22;;;;;;;13.60;7.72;;;13.60;99.90;;;;;;5036126;28;20073;-53
2021/10/14 08:54:48;;;;;;;11.23;7.88;;;13.60;99.90;;;;;;5036623;28;20079;-53
2021/10/14 08:57:13;;;;;;;16.30;7.45;;;13.60;99.90;;;;;;5034884;28;20456;-53
2021/10/14 08:59:39;;;;;;;18.38;8.45;;;13.60;99.90;;;;;;5037358;28;20650;-53
2021/10/14 09:02:07;;;;;;;12.10;6.65;;;13.60;99.90;;;;;;5032141;28;20037;-55
2021/10/14 09:04:38;;;;;;;14.88;6.95;;;13.60;99.90;;;;;;5032168;28;20037;-54
2021/10/14 09:07:12;;;;;;;14.68;6.85;;;13.60;99.90;;;;;;5038386;28;20038;-54
2021/10/14 09:09:38;;;;;;;14.73;6.20;;;13.60;99.90;;;;;;5033722;28;20117;-54
2021/10/14 09:12:09;;;;;;;10.05;5.70;;;13.60;99.90;;;;;;5033663;28;20526;-54
2021/10/14 09:14:57;;;;;;;10.93;5.68;;;13.60;99.90;;;;;;5032396;28;20440;-53
2021/10/14 09:17:38;;;;;;;13.00;5.53;;;13.60;99.90;;;;;;5027907;28;20504;-54
2021/10/14 09:20:26;;;;;;;9.15;4.85;;;13.60;99.90;;;;;;5038029;28;20528;-54
2021/10/14 09:23:13;;;;;;;11.82;5.07;;;13.70;99.90;;;;;;5032007;28;20042;-54
2021/10/14 09:25:44;;;;;;;10.70;4.72;;;13.70;99.90;;;;;;5031285;28;20041;-53
2021/10/14 09:28:23;;;;;;;8.98;4.38;;;13.70;99.90;;;;;;5031736;28;20037;-55
2021/10/14 09:30:52;;;;;;;13.32;4.90;;;13.80;99.90;;;;;;5030403;28;20125;-54
2021/10/14 09:33:43;;;;;;;10.60;4.75;;;13.80;99.90;;;;;;5030803;28;20398;-54
2021/10/14 09:36:27;;;;;;;10.75;4.38;;;13.80;99.90;;;;;;5027709;28;20037;-53
2021/10/14 09:38:54;;;;;;;11.68;5.20;;;13.80;99.90;;;;;;5031779;28;20103;-54
2021/10/14 09:41:21;;;;;;;10.30;4.47;;;13.80;99.90;;;;;;5031315;28;20037;-55
2021/10/14 09:43:50;;;;;;;8.55;4.13;;;13.80;99.90;;;;;;5031429;28;20063;-55
2021/10/14 09:46:33;;;;;;;8.95;4.40;;;13.90;99.90;;;;;;5030694;28;20067;-55
2021/10/14 09:48:59;;;;;;;11.40;4.20;;;13.90;99.90;;;;;;5031456;28;20060;-55
2021/10/14 09:51:36;;;;;;;13.27;4.50;;;13.90;99.90;;;;;;5040440;28;20033;-54
2021/10/14 09:54:03;;;;;;;12.55;4.45;;;13.90;99.90;;;;;;5030046;28;20573;-52
2021/10/14 09:56:30;;;;;;;12.65;4.28;;;13.90;99.90;;;;;;5031111;28;20104;-52
2021/10/14 09:58:57;;;;;;;11.25;4.53;;;13.90;99.90;;;;;;5014523;28;20057;-52
2021/10/14 10:01:24;;;;;;;16.10;4.50;;;13.90;99.90;;;;;;5030869;28;20159;-52
2021/10/14 10:03:49;;;;;;;12.85;5.00;;;13.90;99.90;;;;;;5031976;28;20095;-52
2021/10/14 10:06:16;;;;;;;8.63;4.20;;;14.00;99.90;;;;;;5029924;28;20112;-54
2021/10/14 10:08:43;;;;;;;9.35;4.57;;;13.90;99.90;;;;;;5028939;28;20061;-51
2021/10/14 10:11:13;;;;;;;8.40;4.30;;;13.90;99.90;;;;;;5030742;28;20036;-52
2021/10/14 10:13:45;;;;;;;10.43;4.45;;;13.90;99.90;;;;;;5030887;28;20030;-53
2021/10/14 10:16:25;;;;;;;15.77;5.25;;;13.90;99.90;;;;;;5031706;28;20104;-52
2021/10/14 10:18:52;;;;;;;12.50;4.85;;;13.80;99.90;;;;;;5034167;28;20375;-53
2021/10/14 10:21:29;;;;;;;11.48;5.18;;;13.90;99.90;;;;;;5031321;28;20044;-55
2021/10/14 10:23:56;;;;;;;12.05;5.15;;;13.90;99.90;;;;;;5015887;28;20628;-50
2021/10/14 10:26:46;;;;;;;11.25;5.30;;;13.90;99.90;;;;;;5025442;28;20044;-52
2021/10/14 10:29:14;;;;;;;14.02;5.20;;;14.00;99.90;;;;;;5026678;28;20077;-53
2021/10/14 10:31:49;;;;;;;12.35;5.28;;;14.10;99.90;;;;;;5030618;28;20509;-52
2021/10/14 10:34:40;;;;;;;14.55;5.07;;;14.10;99.90;;;;;;5030302;28;20064;-51
2021/10/14 10:37:18;;;;;;;9.75;4.78;;;14.20;99.90;;;;;;5023655;28;20095;-55
2021/10/14 10:39:50;;;;;;;16.10;6.45;;;14.20;99.90;;;;;;5029000;28;20525;-50
2021/10/14 10:42:30;;;;;;;12.43;4.82;;;14.30;99.90;;;;;;5031023;28;20061;-50
2021/10/14 10:45:27;;;;;;;15.15;5.50;;;14.30;99.90;;;;;;5031749;28;20084;-54
2021/10/14 10:47:56;;;;;;;12.20;5.55;;;14.40;99.90;;;;;;5020707;28;20053;-51
2021/10/14 10:50:43;;;;;;;11.35;4.65;;;14.40;99.90;;;;;;5045483;28;20032;-53
2021/10/14 10:53:10;;;;;;;11.15;5.57;;;14.40;99.90;;;;;;5031423;28;20500;-52
2021/10/14 10:55:44;;;;;;;10.07;5.20;;;14.40;99.90;;;;;;5044493;28;20045;-51
2021/10/14 10:58:14;;;;;;;10.35;4.78;;;14.40;99.70;;;;;;5035165;28;20437;-56
2021/10/14 11:00:42;;;;;;;14.80;5.30;;;14.30;99.90;;;;;;5037574;28;20144;-52
2021/10/14 11:03:10;;;;;;;11.98;5.35;;;14.30;99.80;;;;;;5041934;28;20033;-50
2021/10/14 11:05:52;;;;;;;11.63;5.68;;;14.40;99.90;;;;;;5033947;28;20083;-52
2021/10/14 11:08:31;;;;;;;11.02;5.57;;;14.40;99.20;;;;;;5033919;28;20068;-51
2021/10/14 11:11:05;;;;;;;9.75;5.50;;;14.40;99.20;;;;;;5029715;28;20079;-53
2021/10/14 11:13:33;;;;;;;11.82;5.90;;;14.40;99.40;;;;;;5034023;28;20045;-53
2021/10/14 11:16:00;;;;;;;12.30;5.30;;;14.40;99.60;;;;;;5026026;28;20052;-55
2021/10/14 11:18:27;;;;;;;12.00;5.45;;;14.40;99.80;;;;;;5038285;28;20033;-51
2021/10/14 11:21:00;;;;;;;9.82;5.43;;;14.40;99.40;;;;;;5039886;28;20098;-49
2021/10/14 11:23:34;;;;;;;12.65;6.00;;;14.50;99.30;;;;;;5037034;28;20033;-50
2021/10/14 11:26:17;;;;;;;13.95;5.50;;;14.50;99.70;;;;;;5041788;28;20045;-51
2021/10/14 11:28:50;;;;;;;15.07;5.50;;;14.50;99.60;;;;;;5036108;28;20045;-49
2021/10/14 11:31:28;;;;;;;11.15;5.53;;;14.50;99.40;;;;;;5024579;28;20080;-50
2021/10/14 11:33:56;;;;;;;8.88;4.53;;;14.50;98.70;;;;;;5033922;28;20564;-52
2021/10/14 11:36:23;;;;;;;13.45;5.65;;;14.60;98.90;;;;;;5036910;28;20029;-51
2021/10/14 11:38:57;;;;;;;10.63;5.18;;;14.60;98.60;;;;;;5032371;28;20562;-49
2021/10/14 11:41:22;;;;;;;11.50;5.13;;;14.60;98.30;;;;;;5033643;28;20041;-52
2021/10/14 11:43:54;;;;;;;11.52;5.97;;;14.60;98.50;;;;;;5033865;28;20060;-52
2021/10/14 11:46:40;;;;;;;13.23;5.63;;;14.60;98.50;;;;;;5032667;28;20038;-52
2021/10/14 11:49:13;;;;;;;10.00;5.20;;;14.60;98.00;;;;;;5033261;28;20088;-53
2021/10/14 11:51:39;;;;;;;11.23;5.47;;;14.60;97.80;;;;;;5032223;28;20086;-52
2021/10/14 11:54:08;;;;;;;12.18;5.25;;;14.60;97.60;;;;;;5033595;28;20536;-52
2021/10/14 11:56:45;;;;;;;9.07;5.25;;;14.60;97.50;;;;;;5031465;28;20501;-53
2021/10/14 11:59:12;;;;;;;11.93;5.43;;;14.60;97.40;;;;;;5033254;28;20116;-52
2021/10/14 12:02:03;;;;;;;14.02;5.65;;;14.60;97.00;;;;;;5032690;28;20121;-52
2021/10/14 12:04:35;;;;;;;9.10;5.22;;;14.60;97.50;;;;;;5033385;28;20049;-51
2021/10/14 12:07:02;;;;;;;12.20;5.28;;;14.60;97.80;;;;;;5032986;28;20405;-52
2021/10/14 12:09:28;;;;;;;10.70;5.18;;;14.70;97.60;;;;;;5031305;28;20065;-52
2021/10/14 12:11:58;;;;;;;11.25;5.00;;;14.70;97.60;;;;;;5028870;28;20046;-51
2021/10/14 12:14:26;;;;;;;15.02;4.95;;;14.80;97.60;;;;;;5030265;28;20456;-50
2021/10/14 12:17:07;;;;;;;11.43;4.75;;;14.80;96.90;;;;;;5031110;28;20034;-53
2021/10/14 12:19:49;;;;;;;7.38;4.65;;;14.80;96.70;;;;;;5033005;28;20076;-53
2021/10/14 12:22:18;;;;;;;9.43;4.20;;;14.80;96.90;;;;;;5032034;28;20124;-53
2021/10/14 12:25:13;;;;;;;8.15;4.30;;;14.80;96.00;;;;;;5030015;28;20037;-51
2021/10/14 12:27:55;;;;;;;8.00;3.70;;;14.80;95.90;;;;;;5019288;28;20140;-52
2021/10/14 12:30:31;;;;;;;15.25;4.85;;;14.90;95.80;;;;;;5036179;28;20117;-52
2021/10/14 12:33:12;;;;;;;7.97;4.80;;;14.90;95.50;;;;;;5037964;28;20075;-55
2021/10/14 12:36:01;;;;;;;7.95;4.00;;;14.90;95.30;;;;;;5018108;28;20053;-52
2021/10/14 12:38:38;;;;;;;9.20;4.40;;;15.00;94.80;;;;;;5029688;28;20044;-51
2021/10/14 12:41:07;;;;;;;7.30;4.20;;;15.00;94.40;;;;;;5028896;28;20068;-52
2021/10/14 12:43:45;;;;;;;9.15;4.13;;;14.90;94.00;;;;;;5033737;28;20508;-53
2021/10/14 12:48:58;;;;;;;7.05;4.03;;;14.90;94.10;;;;;;5035619;28;20068;-51